createdAt,value
2023-03-19T00:00:29.484Z,77.73
2023-03-19T00:02:56.355Z,77.61
2023-03-19T00:05:23.433Z,77.38
2023-03-19T00:07:50.502Z,77.44
2023-03-19T00:10:19.046Z,76.67
2023-03-19T00:12:46.818Z,76.44
2023-03-19T00:15:15.478Z,76.54
2023-03-19T00:17:43.366Z,76.41
2023-03-19T00:20:11.610Z,76.09
2023-03-19T00:22:41.502Z,76.21
2023-03-19T00:25:09.708Z,76.56
2023-03-19T00:27:37.854Z,76.49
2023-03-19T00:30:06.139Z,76.57
2023-03-19T00:32:35.206Z,76.32
2023-03-19T00:35:03.087Z,75.86
2023-03-19T00:37:29.948Z,75.75
2023-03-19T00:40:01.807Z,76.16
2023-03-19T00:42:30.994Z,76.28
2023-03-19T00:44:57.596Z,75.98
2023-03-19T00:47:26.116Z,75.89
2023-03-19T00:49:53.615Z,75.91
2023-03-19T00:52:20.247Z,75.91
2023-03-19T00:54:47.282Z,75.78
2023-03-19T00:57:14.072Z,75.79
2023-03-19T00:59:40.902Z,75.73
2023-03-19T01:02:08.286Z,75.54
2023-03-19T01:04:35.391Z,75.48
2023-03-19T01:07:04.417Z,75.21
2023-03-19T01:09:35.284Z,75.39
2023-03-19T01:12:05.221Z,75.46
2023-03-19T01:14:33.743Z,75.62
2023-03-19T01:17:00.712Z,75.81
2023-03-19T01:19:28.115Z,75.64
2023-03-19T01:21:54.996Z,75.43
2023-03-19T01:24:22.804Z,75.68
2023-03-19T01:26:54.316Z,75.51
2023-03-19T01:29:36.262Z,75.32
2023-03-19T01:32:13.964Z,75.13
2023-03-19T01:35:09.591Z,75.09
2023-03-19T01:37:39.076Z,75.21
2023-03-19T01:40:07.013Z,75.20
2023-03-19T01:42:33.662Z,75.11
2023-03-19T01:45:41.890Z,75.32
2023-03-19T01:48:44.591Z,75.70
2023-03-19T01:51:16.779Z,75.95
2023-03-19T01:53:52.247Z,75.91
2023-03-19T01:57:05.961Z,76.17
2023-03-19T02:00:04.804Z,76.13
2023-03-19T02:02:45.222Z,76.04
2023-03-19T02:05:24.895Z,76.13
2023-03-19T02:07:57.814Z,76.22
2023-03-19T02:10:25.631Z,76.43
2023-03-19T02:12:52.875Z,76.62
2023-03-19T02:15:19.892Z,76.73
2023-03-19T02:17:47.135Z,76.90
2023-03-19T02:20:27.385Z,76.78
2023-03-19T02:23:00.392Z,76.72
2023-03-19T02:25:32.840Z,76.35
2023-03-19T02:28:02.314Z,76.75
2023-03-19T02:30:32.384Z,76.86
2023-03-19T02:33:04.319Z,77.20
2023-03-19T02:35:32.590Z,77.45
2023-03-19T02:38:00.517Z,77.67
2023-03-19T02:40:30.309Z,77.70
2023-03-19T02:42:58.274Z,77.52
2023-03-19T02:45:29.280Z,77.36
2023-03-19T02:47:56.334Z,77.74
2023-03-19T02:50:23.111Z,78.27
2023-03-19T02:52:50.094Z,78.47
2023-03-19T02:55:17.854Z,78.62
2023-03-19T02:57:45.130Z,78.63
2023-03-19T03:00:18.192Z,78.86
2023-03-19T03:02:45.329Z,78.80
2023-03-19T03:05:12.992Z,78.69
2023-03-19T03:07:44.450Z,79.01
2023-03-19T03:10:11.466Z,79.22
2023-03-19T03:12:38.287Z,79.76
2023-03-19T03:15:08.574Z,79.89
2023-03-19T03:17:39.226Z,79.89
2023-03-19T03:20:10.823Z,80.30
2023-03-19T03:22:39.991Z,79.96
2023-03-19T03:25:07.118Z,79.63
2023-03-19T03:27:34.301Z,79.72
2023-03-19T03:30:01.117Z,79.91
2023-03-19T03:32:28.074Z,80.17
2023-03-19T03:34:54.865Z,80.51
2023-03-19T03:37:22.601Z,80.54
2023-03-19T03:39:49.257Z,80.54
2023-03-19T03:42:15.823Z,80.38
2023-03-19T03:44:43.080Z,80.30
2023-03-19T03:47:12.590Z,80.62
2023-03-19T03:49:40.963Z,80.87
2023-03-19T03:52:08.488Z,80.86
2023-03-19T03:54:35.164Z,81.18
2023-03-19T03:57:03.522Z,81.28
2023-03-19T03:59:37.097Z,81.26
2023-03-19T04:02:03.761Z,81.08
2023-03-19T04:04:30.477Z,80.85
2023-03-19T04:07:04.046Z,80.79
2023-03-19T04:09:40.590Z,80.91
2023-03-19T04:12:08.877Z,80.95
2023-03-19T04:14:41.556Z,81.08
2023-03-19T04:17:08.702Z,81.22
2023-03-19T04:19:35.697Z,80.79
2023-03-19T04:22:03.242Z,80.72
2023-03-19T04:24:32.586Z,80.50
2023-03-19T04:27:00.240Z,80.25
2023-03-19T04:29:27.662Z,80.24
2023-03-19T04:31:54.399Z,80.21
2023-03-19T04:34:21.055Z,80.27
2023-03-19T04:36:50.272Z,80.50
2023-03-19T04:39:17.556Z,80.46
2023-03-19T04:41:46.598Z,80.39
2023-03-19T04:44:41.559Z,80.07
2023-03-19T04:47:09.877Z,79.85
2023-03-19T04:49:48.273Z,79.78
2023-03-19T04:52:15.487Z,80.27
2023-03-19T04:54:44.000Z,80.40
2023-03-19T04:57:11.804Z,80.17
2023-03-19T04:59:42.145Z,80.19
2023-03-19T05:02:09.604Z,80.09
2023-03-19T05:04:37.210Z,79.79
2023-03-19T05:07:07.943Z,79.60
2023-03-19T05:09:35.787Z,79.20
2023-03-19T05:12:02.358Z,79.26
2023-03-19T05:14:34.669Z,79.20
2023-03-19T05:17:06.902Z,79.40
2023-03-19T05:19:52.248Z,79.55
2023-03-19T05:22:20.635Z,79.25
2023-03-19T05:24:47.520Z,79.24
2023-03-19T05:27:14.466Z,79.07
2023-03-19T05:29:47.574Z,79.15
2023-03-19T05:32:52.564Z,79.28
2023-03-19T05:35:27.191Z,79.03
2023-03-19T05:37:54.233Z,78.51
2023-03-19T05:40:22.670Z,78.38
2023-03-19T05:42:50.708Z,78.20
2023-03-19T05:45:21.906Z,77.63
2023-03-19T05:47:52.384Z,77.74
2023-03-19T05:50:19.239Z,77.44
2023-03-19T05:53:04.456Z,77.45
2023-03-19T05:55:32.326Z,77.37
2023-03-19T05:58:10.023Z,76.99
2023-03-19T06:00:38.396Z,76.80
2023-03-19T06:03:05.080Z,76.10
2023-03-19T06:05:43.245Z,75.82
2023-03-19T06:08:29.354Z,75.65
2023-03-19T06:11:06.305Z,75.70
2023-03-19T06:13:33.551Z,75.40
2023-03-19T06:16:06.048Z,75.34
2023-03-19T06:18:45.167Z,75.10
2023-03-19T06:21:12.616Z,75.13
2023-03-19T06:23:41.142Z,74.66
2023-03-19T06:26:16.678Z,74.19
2023-03-19T06:28:53.181Z,74.06
2023-03-19T06:31:19.984Z,73.99
2023-03-19T06:33:56.461Z,73.87
2023-03-19T06:36:26.426Z,73.88
2023-03-19T06:38:57.819Z,73.90
2023-03-19T06:41:25.184Z,73.68
2023-03-19T06:43:52.638Z,73.43
2023-03-19T06:46:19.335Z,73.28
2023-03-19T06:48:46.448Z,73.17
2023-03-19T06:51:19.747Z,72.97
2023-03-19T06:53:46.441Z,72.80
2023-03-19T06:56:12.997Z,72.78
2023-03-19T06:58:46.492Z,72.57
2023-03-19T07:01:13.659Z,72.32
2023-03-19T07:03:40.711Z,71.85
2023-03-19T07:06:07.274Z,71.55
2023-03-19T07:08:34.361Z,70.17
2023-03-19T07:11:05.484Z,69.48
2023-03-19T07:13:33.106Z,68.38
2023-03-19T07:16:00.318Z,67.57
2023-03-19T07:18:26.965Z,66.33
2023-03-19T07:20:54.809Z,65.85
2023-03-19T07:23:21.588Z,65.96
2023-03-19T07:25:48.402Z,65.29
2023-03-19T07:28:15.860Z,64.62
2023-03-19T07:30:43.561Z,64.11
2023-03-19T07:33:10.379Z,64.01
2023-03-19T07:35:37.270Z,63.70
2023-03-19T07:38:04.099Z,63.39
2023-03-19T07:40:35.022Z,63.07
2023-03-19T07:43:02.645Z,62.80
2023-03-19T07:45:30.674Z,62.34
2023-03-19T07:48:03.067Z,62.09
2023-03-19T07:50:30.672Z,61.84
2023-03-19T07:52:57.398Z,61.58
2023-03-19T07:55:24.032Z,61.75
2023-03-19T07:57:50.872Z,61.63
2023-03-19T08:00:22.009Z,61.93
2023-03-19T08:02:48.878Z,61.75
2023-03-19T08:05:16.243Z,61.85
2023-03-19T08:07:48.825Z,61.83
2023-03-19T08:10:15.742Z,61.82
2023-03-19T08:12:42.703Z,61.72
2023-03-19T08:15:15.343Z,61.62
2023-03-19T08:17:42.989Z,61.59
2023-03-19T08:20:11.460Z,61.78
2023-03-19T08:22:38.562Z,61.60
2023-03-19T08:25:06.868Z,61.33
2023-03-19T08:27:35.425Z,61.60
2023-03-19T08:30:06.877Z,61.70
2023-03-19T08:32:34.571Z,61.53
2023-03-19T08:35:05.510Z,61.36
2023-03-19T08:37:33.740Z,60.96
2023-03-19T08:40:00.605Z,61.03
2023-03-19T08:42:30.430Z,61.06
2023-03-19T08:44:58.250Z,61.03
2023-03-19T08:47:25.110Z,60.98
2023-03-19T08:49:52.888Z,61.13
2023-03-19T08:52:20.097Z,60.65
2023-03-19T08:54:46.970Z,60.13
2023-03-19T08:57:13.713Z,59.71
2023-03-19T08:59:40.762Z,59.14
2023-03-19T09:02:10.002Z,58.12
2023-03-19T09:06:14.356Z,57.92
2023-03-19T09:08:58.029Z,57.43
2023-03-19T09:11:26.801Z,56.69
2023-03-19T09:13:54.812Z,56.52
2023-03-19T09:16:21.962Z,56.75
2023-03-19T09:18:50.601Z,56.25
2023-03-19T09:21:17.875Z,55.95
2023-03-19T09:23:44.974Z,56.15
2023-03-19T09:26:15.116Z,56.51
2023-03-19T09:28:42.157Z,56.18
2023-03-19T09:31:11.005Z,55.70
2023-03-19T09:33:38.205Z,55.50
2023-03-19T09:36:05.413Z,55.11
2023-03-19T09:38:34.736Z,54.44
2023-03-19T09:41:06.929Z,54.02
2023-03-19T09:43:57.161Z,53.63
2023-03-19T09:46:28.893Z,52.98
2023-03-19T09:49:28.757Z,52.26
2023-03-19T09:52:02.931Z,50.86
2023-03-19T09:54:42.091Z,50.90
2023-03-19T09:57:09.341Z,50.62
2023-03-19T09:59:36.726Z,50.30
2023-03-19T10:02:21.273Z,50.52
2023-03-19T10:04:55.391Z,50.55
2023-03-19T10:07:32.040Z,49.65
2023-03-19T10:10:25.505Z,48.03
2023-03-19T10:12:57.327Z,46.95
2023-03-19T10:15:29.216Z,44.24
2023-03-19T10:18:17.346Z,42.68
2023-03-19T10:21:05.340Z,41.92
2023-03-19T10:23:39.385Z,41.00
2023-03-19T10:26:11.501Z,39.90
2023-03-19T10:28:41.679Z,39.25
2023-03-19T10:31:26.371Z,38.47
2023-03-19T10:34:18.908Z,37.04
2023-03-19T10:36:46.887Z,35.55
2023-03-19T10:39:18.600Z,34.48
2023-03-19T10:42:21.270Z,34.41
2023-03-19T10:44:58.867Z,34.29
2023-03-19T10:47:35.659Z,34.01
2023-03-19T10:50:02.883Z,33.78
2023-03-19T10:52:37.218Z,33.65
2023-03-19T10:55:20.632Z,32.68
2023-03-19T10:57:54.096Z,32.52
2023-03-19T11:00:26.483Z,32.31
2023-03-19T11:02:55.936Z,32.46
2023-03-19T11:05:24.700Z,32.09
2023-03-19T11:08:08.782Z,31.56
2023-03-19T11:10:39.466Z,30.93
2023-03-19T11:13:15.524Z,30.38
2023-03-19T11:15:48.269Z,30.28
2023-03-19T11:18:20.884Z,29.99
2023-03-19T11:20:59.120Z,29.99
2023-03-19T11:23:37.617Z,29.50
2023-03-19T11:26:04.602Z,28.97
2023-03-19T11:28:34.176Z,29.22
2023-03-19T11:31:13.150Z,29.41
2023-03-19T11:34:07.268Z,28.78
2023-03-19T11:37:02.942Z,29.04
2023-03-19T11:39:36.856Z,28.31
2023-03-19T11:42:26.503Z,28.25
2023-03-19T11:45:15.643Z,28.41
2023-03-19T11:48:00.846Z,28.02
2023-03-19T11:50:35.930Z,27.74
2023-03-19T11:53:08.872Z,27.64
2023-03-19T11:55:41.818Z,27.36
2023-03-19T11:58:57.090Z,27.05
2023-03-19T12:01:54.923Z,26.70
2023-03-19T12:04:28.085Z,26.57
2023-03-19T12:07:01.782Z,26.39
2023-03-19T12:09:35.569Z,25.84
2023-03-19T12:12:07.501Z,25.88
2023-03-19T12:14:51.365Z,25.77
2023-03-19T12:17:22.573Z,25.66
2023-03-19T12:20:00.577Z,25.46
2023-03-19T12:22:45.758Z,25.36
2023-03-19T12:25:19.103Z,25.26
2023-03-19T12:27:45.822Z,25.74
2023-03-19T12:30:27.560Z,25.48
2023-03-19T12:33:12.419Z,25.07
2023-03-19T12:35:41.422Z,25.02
2023-03-19T12:38:12.726Z,25.10
2023-03-19T12:40:52.146Z,24.83
2023-03-19T12:43:24.320Z,24.69
2023-03-19T12:45:55.671Z,24.51
2023-03-19T12:48:31.385Z,24.40
2023-03-19T12:51:03.014Z,24.23
2023-03-19T12:53:44.057Z,24.06
2023-03-19T12:56:45.373Z,23.88
2023-03-19T12:59:30.439Z,24.08
2023-03-19T13:02:09.950Z,24.32
2023-03-19T13:04:48.096Z,24.61
2023-03-19T13:07:20.876Z,24.74
2023-03-19T13:09:57.188Z,24.51
2023-03-19T13:12:31.638Z,24.48
2023-03-19T13:15:09.922Z,24.38
2023-03-19T13:17:43.203Z,24.10
2023-03-19T13:20:23.803Z,24.59
2023-03-19T13:22:56.152Z,25.54
2023-03-19T13:25:36.370Z,26.20
2023-03-19T13:28:03.069Z,27.13
2023-03-19T13:30:30.841Z,27.94
2023-03-19T13:33:05.708Z,28.96
2023-03-19T13:35:42.645Z,30.15
2023-03-19T13:38:20.551Z,31.14
2023-03-19T13:40:49.455Z,32.15
2023-03-19T13:43:29.122Z,32.86
2023-03-19T13:46:11.312Z,33.51
2023-03-19T13:48:44.960Z,34.11
2023-03-19T13:51:11.951Z,34.71
2023-03-19T13:53:41.902Z,35.04
2023-03-19T13:56:22.519Z,35.44
2023-03-19T13:59:14.130Z,36.12
2023-03-19T14:01:44.061Z,36.66
2023-03-19T14:04:21.939Z,37.37
2023-03-19T14:06:50.942Z,37.76
2023-03-19T14:09:38.840Z,38.34
2023-03-19T14:12:14.736Z,38.71
2023-03-19T14:14:57.994Z,39.10
2023-03-19T14:17:25.185Z,39.57
2023-03-19T14:19:53.127Z,39.75
2023-03-19T14:22:32.045Z,40.16
2023-03-19T14:25:17.968Z,40.79
2023-03-19T14:28:00.169Z,41.00
2023-03-19T14:30:33.465Z,41.21
2023-03-19T14:33:03.992Z,41.70
2023-03-19T14:35:33.214Z,41.63
2023-03-19T14:38:02.843Z,41.90
2023-03-19T14:40:39.061Z,42.26
2023-03-19T14:43:34.082Z,42.50
2023-03-19T14:46:06.746Z,42.61
2023-03-19T14:49:11.832Z,42.90
2023-03-19T14:51:57.260Z,43.13
2023-03-19T14:54:29.754Z,43.35
2023-03-19T14:56:57.205Z,43.26
2023-03-19T14:59:24.349Z,43.54
2023-03-19T15:01:52.551Z,44.05
2023-03-19T15:04:23.850Z,44.08
2023-03-19T15:06:57.050Z,44.29
2023-03-19T15:09:44.104Z,44.65
2023-03-19T15:12:33.018Z,44.85
2023-03-19T15:15:09.505Z,44.98
2023-03-19T15:17:49.220Z,45.21
2023-03-19T15:20:34.640Z,45.36
2023-03-19T15:23:16.362Z,45.69
2023-03-19T15:25:57.636Z,46.04
2023-03-19T15:28:30.029Z,46.05
2023-03-19T15:31:14.459Z,46.21
2023-03-19T15:33:50.372Z,46.13
2023-03-19T15:36:37.944Z,46.63
2023-03-19T15:39:07.079Z,46.86
2023-03-19T15:41:35.935Z,47.10
2023-03-19T15:44:05.429Z,47.00
2023-03-19T15:46:33.738Z,47.34
2023-03-19T15:49:38.452Z,47.61
2023-03-19T15:52:08.736Z,47.66
2023-03-19T15:54:37.292Z,48.04
2023-03-19T15:57:05.367Z,48.68
2023-03-19T15:59:32.600Z,48.68
2023-03-19T16:02:00.476Z,48.92
2023-03-19T16:04:29.646Z,49.08
2023-03-19T16:06:57.531Z,49.74
2023-03-19T16:09:31.300Z,49.65
2023-03-19T16:11:58.314Z,49.76
2023-03-19T16:14:40.332Z,50.13
2023-03-19T16:17:13.928Z,50.14
2023-03-19T16:19:55.455Z,50.13
2023-03-19T16:22:31.757Z,50.10
2023-03-19T16:24:59.038Z,50.29
2023-03-19T16:27:33.472Z,50.40
2023-03-19T16:30:13.748Z,50.67
2023-03-19T16:32:41.939Z,50.68
2023-03-19T16:35:16.039Z,50.76
2023-03-19T16:37:44.277Z,51.13
2023-03-19T16:40:11.600Z,51.04
2023-03-19T16:42:40.091Z,51.31
2023-03-19T16:45:25.428Z,51.38
2023-03-19T16:47:53.361Z,51.46
2023-03-19T16:50:24.032Z,51.58
2023-03-19T16:52:51.029Z,51.82
2023-03-19T16:55:19.361Z,52.06
2023-03-19T16:57:51.979Z,51.94
2023-03-19T17:00:19.835Z,52.11
2023-03-19T17:02:47.520Z,52.14
2023-03-19T17:05:15.682Z,52.34
2023-03-19T17:07:44.185Z,52.42
2023-03-19T17:10:15.492Z,52.52
2023-03-19T17:12:42.791Z,52.59
2023-03-19T17:15:29.905Z,52.61
2023-03-19T17:17:58.178Z,52.60
2023-03-19T17:20:31.347Z,52.51
2023-03-19T17:22:59.013Z,52.63
2023-03-19T17:25:27.189Z,52.84
2023-03-19T17:27:54.011Z,53.09
2023-03-19T17:30:21.091Z,53.05
2023-03-19T17:32:50.366Z,53.19
2023-03-19T17:35:20.889Z,53.22
2023-03-19T17:37:48.159Z,53.33
2023-03-19T17:40:28.520Z,53.58
2023-03-19T17:42:57.212Z,53.83
2023-03-19T17:45:27.082Z,54.01
2023-03-19T17:47:57.515Z,54.06
2023-03-19T17:50:28.906Z,54.41
2023-03-19T17:52:55.660Z,54.85
2023-03-19T17:55:28.872Z,54.79
2023-03-19T17:57:56.314Z,54.86
2023-03-19T18:00:23.727Z,54.89
2023-03-19T18:02:52.202Z,54.88
2023-03-19T18:05:21.199Z,55.07
2023-03-19T18:07:54.745Z,54.96
2023-03-19T18:10:26.985Z,55.07
2023-03-19T18:12:54.027Z,55.21
2023-03-19T18:15:23.125Z,55.30
2023-03-19T18:17:55.593Z,55.41
2023-03-19T18:20:24.820Z,55.47
2023-03-19T18:22:56.050Z,55.58
2023-03-19T18:25:25.545Z,55.75
2023-03-19T18:27:52.499Z,55.85
2023-03-19T18:30:22.395Z,55.89
2023-03-19T18:32:52.121Z,55.98
2023-03-19T18:35:21.273Z,56.17
2023-03-19T18:37:50.038Z,56.23
2023-03-19T18:40:21.776Z,56.50
2023-03-19T18:42:48.893Z,56.97
2023-03-19T18:45:16.759Z,57.29
2023-03-19T18:47:44.300Z,57.68
2023-03-19T18:50:19.069Z,58.08
2023-03-19T18:52:47.579Z,58.38
2023-03-19T18:55:14.449Z,58.82
2023-03-19T18:57:53.224Z,59.29
2023-03-19T19:00:26.144Z,59.62
2023-03-19T19:02:54.837Z,60.21
2023-03-19T19:05:23.673Z,60.37
2023-03-19T19:07:50.938Z,60.86
2023-03-19T19:10:18.025Z,61.49
2023-03-19T19:12:46.884Z,62.02
2023-03-19T19:15:24.932Z,62.57
2023-03-19T19:17:53.989Z,63.25
2023-03-19T19:20:23.755Z,63.51
2023-03-19T19:22:51.264Z,64.29
2023-03-19T19:25:22.918Z,65.10
2023-03-19T19:28:20.513Z,65.34
2023-03-19T19:30:48.689Z,65.81
2023-03-19T19:33:19.933Z,65.97
2023-03-19T19:35:46.576Z,66.33
2023-03-19T19:38:13.552Z,66.59
2023-03-19T19:40:44.450Z,66.87
2023-03-19T19:43:27.405Z,67.17
2023-03-19T19:45:54.882Z,67.30
2023-03-19T19:48:26.794Z,67.43
2023-03-19T19:50:54.567Z,67.86
2023-03-19T19:53:24.523Z,67.71
2023-03-19T19:55:54.193Z,68.00
2023-03-19T19:58:26.661Z,68.40
2023-03-19T20:01:03.287Z,68.52
2023-03-19T20:03:31.862Z,68.63
2023-03-19T20:05:59.597Z,68.78
2023-03-19T20:08:28.038Z,69.11
2023-03-19T20:10:55.460Z,69.30
2023-03-19T20:13:25.858Z,69.48
2023-03-19T20:15:57.425Z,70.04
2023-03-19T20:18:30.809Z,70.11
2023-03-19T20:20:57.714Z,70.24
2023-03-19T20:23:25.051Z,70.37
2023-03-19T20:25:52.020Z,70.34
2023-03-19T20:28:26.965Z,70.79
2023-03-19T20:30:54.934Z,70.77
2023-03-19T20:33:21.847Z,70.77
2023-03-19T20:35:50.255Z,70.87
2023-03-19T20:38:17.430Z,70.96
2023-03-19T20:40:55.003Z,71.02
2023-03-19T20:43:28.393Z,70.97
2023-03-19T20:45:57.045Z,71.32
2023-03-19T20:48:24.416Z,71.46
2023-03-19T20:50:51.726Z,71.21
2023-03-19T20:53:18.502Z,71.33
2023-03-19T20:55:47.327Z,71.15
2023-03-19T20:58:17.022Z,70.84
2023-03-19T21:00:44.177Z,70.69
2023-03-19T21:03:21.847Z,70.83
2023-03-19T21:05:51.219Z,70.93
2023-03-19T21:08:42.515Z,71.23
2023-03-19T21:11:17.217Z,71.22
2023-03-19T21:13:48.971Z,71.44
2023-03-19T21:16:25.513Z,71.68
2023-03-19T21:18:56.555Z,71.69
2023-03-19T21:24:07.550Z,71.66
2023-03-19T21:26:36.593Z,71.92
2023-03-19T21:29:06.660Z,71.66
2023-03-19T21:31:36.885Z,71.80
2023-03-19T21:34:05.704Z,71.48
2023-03-19T21:36:32.738Z,70.88
2023-03-19T21:39:01.528Z,71.01
2023-03-19T21:41:31.419Z,70.99
2023-03-19T21:44:14.117Z,71.03
2023-03-19T21:46:41.900Z,71.31
2023-03-19T21:49:10.657Z,71.46
2023-03-19T21:51:43.664Z,71.41
2023-03-19T21:54:11.006Z,71.47
2023-03-19T21:56:40.081Z,71.65
2023-03-19T21:59:16.148Z,72.03
2023-03-19T22:01:42.804Z,72.26
2023-03-19T22:04:09.757Z,72.55
2023-03-19T22:06:37.048Z,72.89
2023-03-19T22:09:04.125Z,73.35
2023-03-19T22:11:34.055Z,73.38
2023-03-19T22:14:11.837Z,73.64
2023-03-19T22:16:42.025Z,73.75
2023-03-19T22:19:17.140Z,73.97
2023-03-19T22:21:45.063Z,74.03
2023-03-19T22:24:12.115Z,74.22
2023-03-19T22:26:40.355Z,74.30
2023-03-19T22:29:18.777Z,74.56
2023-03-19T22:31:48.067Z,74.78
2023-03-19T22:34:16.242Z,74.75
2023-03-19T22:36:49.793Z,74.89
2023-03-19T22:39:16.932Z,74.70
2023-03-19T22:41:50.301Z,74.53
2023-03-19T22:44:30.762Z,74.52
2023-03-19T22:46:59.385Z,74.43
2023-03-19T22:49:27.675Z,74.53
2023-03-19T22:51:56.404Z,74.65
2023-03-19T22:54:23.689Z,74.68
2023-03-19T22:56:51.812Z,74.79
2023-03-19T22:59:22.423Z,74.77
2023-03-19T23:01:50.649Z,74.31
2023-03-19T23:04:23.707Z,74.11
2023-03-19T23:06:52.291Z,74.27
2023-03-19T23:09:30.329Z,74.08
2023-03-19T23:11:58.803Z,73.85
2023-03-19T23:14:30.645Z,73.85
2023-03-19T23:17:01.097Z,74.08
2023-03-19T23:19:32.484Z,74.18
2023-03-19T23:22:00.715Z,74.44
2023-03-19T23:24:30.937Z,74.52
2023-03-19T23:27:04.478Z,74.35
2023-03-19T23:29:37.167Z,74.04
2023-03-19T23:32:04.421Z,74.48
2023-03-19T23:34:33.527Z,74.46
2023-03-19T23:37:02.234Z,74.82
2023-03-19T23:39:30.913Z,74.93
2023-03-19T23:41:58.524Z,75.22
2023-03-19T23:44:28.447Z,75.59
2023-03-19T23:46:55.683Z,75.77
2023-03-19T23:49:31.835Z,75.89
2023-03-19T23:51:59.927Z,76.05
2023-03-19T23:54:31.775Z,75.96
2023-03-19T23:57:00.976Z,76.25
2023-03-19T23:59:31.071Z,76.52
